ワルシャワ の空港の天気 - METARとTAF

ワルシャワ・フレデリック・ショパン空港 ( EPWA / WAW ) - ポーランド ワルシャワ
飛行場実況気象(Metar)
観測時間07/26 18:00 CEST (07/26 16:00 UTC)
風向・風速南南東 2m/s
視程10km以上
天気現象
少しの雲 雲底高度 300m
気温20℃
湿度94%
気圧1012hPa
METAREPWA 261600Z 15003KT 110V180 9999 FEW010 20/19 Q1012 NOSIG
過去の天気等 Google飛行場航空写真 Wunderground天気予報

過去48時間のMETAR

飛行場予報(TAF)
発表時間: 7/26 16:30 CEST (7/26 14:30 UTC)
予報対象時間: 26日17時 CEST ~ 27日17時 CEST
風向・風速南南西 4m/s
視程10km以上
全天の4割程度の雲 雲底高度 1070m
26日17時 CEST ~ 26日22時 CEST に一時的に
視程4000m
天気現象雷雨
全天の4割程度の雲 雲底高度 370m
全天の8割程度の積乱雲 雲底高度 1220m
26日17時 CEST ~ 26日20時 CEST に 確率 40% で一時的に
風向・風速不定 10m/s 瞬間風速 18m/s
視程1000m
天気現象強い雷雨
全天の8割程度の雲 雲底高度 210m
26日23時 CEST から 確率 40% で
視程3000m
天気現象もや
全天の8割程度の雲 雲底高度 150m
27日13時 CEST ~ 27日17時 CEST に 確率 40% で一時的に
視程4000m
天気現象雷雨
全天の8割程度の積乱雲 雲底高度 1070m
TAF EPWA 261430Z 2615/2715 20007KT 9999 SCT035
TEMPO 2615/2620 4000 TSRA SCT012 BKN040CB
PROB40 TEMPO 2615/2618 VRB20G35KT 1000 +TSRA BKN007
PROB40 2621/2706 3000 BR BKN005
PROB40 TEMPO 2711/2715 4000 TSRA BKN035CB